Time;durP1;ratioP1;P1;durP2;ratioP2;P2;SDS_P1;SDS_P2;PMS_P1;PMS_P2;Temp;Humidity;BMP_temperature;BMP_pressure;BME280_temperature;BME280_humidity;BME280_pressure;Samples;Min_cycle;Max_cycle;Signal;HPM_P1;HPM_P2
2024/04/05 00:01:08;;;;;;;16.77;2.70;;;11.30;99.90;;;;;;4843924;29;20215;-83
2024/04/05 00:03:33;;;;;;;16.67;3.20;;;11.30;99.90;;;;;;4828973;29;20181;-83
2024/04/05 00:05:59;;;;;;;12.00;2.63;;;11.30;99.90;;;;;;4825764;29;20241;-86
2024/04/05 00:08:26;;;;;;;16.00;3.38;;;11.30;99.90;;;;;;4827267;29;20505;-83
2024/04/05 00:10:52;;;;;;;15.40;3.15;;;11.30;99.90;;;;;;4827162;29;20186;-84
2024/04/05 00:13:18;;;;;;;15.73;3.65;;;11.30;99.90;;;;;;4827173;29;20253;-84
2024/04/05 00:15:45;;;;;;;14.95;3.25;;;11.20;99.90;;;;;;4810449;29;20186;-83
2024/04/05 00:18:11;;;;;;;14.52;2.95;;;11.10;99.90;;;;;;4810444;29;20238;-82
2024/04/05 00:20:40;;;;;;;12.98;3.20;;;11.10;99.90;;;;;;4810695;29;20217;-84
2024/04/05 00:23:05;;;;;;;16.13;4.00;;;11.10;99.90;;;;;;4826822;29;20232;-84
2024/04/05 00:25:31;;;;;;;18.67;2.95;;;11.10;99.90;;;;;;4810520;29;20606;-83
2024/04/05 00:27:57;;;;;;;13.90;3.35;;;11.00;99.90;;;;;;4827101;29;20170;-85
2024/04/05 00:30:23;;;;;;;13.00;3.10;;;11.00;99.90;;;;;;4826556;29;20182;-84
2024/04/05 00:32:49;;;;;;;17.17;3.85;;;11.00;99.90;;;;;;4810547;29;20496;-82
2024/04/05 00:35:15;;;;;;;15.65;3.53;;;10.90;99.90;;;;;;4826986;29;20650;-84
2024/04/05 00:37:41;;;;;;;17.60;3.15;;;10.90;99.90;;;;;;4810534;29;20197;-84
2024/04/05 00:40:07;;;;;;;12.55;3.47;;;10.90;99.90;;;;;;4810460;29;20684;-83
2024/04/05 00:42:34;;;;;;;22.27;4.07;;;10.90;99.90;;;;;;4810723;29;20186;-84
2024/04/05 00:45:00;;;;;;;15.90;3.33;;;10.90;99.90;;;;;;4810488;29;20224;-87
2024/04/05 00:47:26;;;;;;;18.63;3.70;;;10.90;99.90;;;;;;4826652;29;20705;-84
2024/04/05 00:49:52;;;;;;;14.95;3.30;;;10.90;99.90;;;;;;4826903;29;20253;-85
2024/04/05 00:52:18;;;;;;;15.98;3.22;;;10.90;99.90;;;;;;4810509;29;20192;-83
2024/04/05 00:54:44;;;;;;;17.85;3.63;;;10.90;99.90;;;;;;4826713;29;20636;-85
2024/04/05 00:57:10;;;;;;;14.52;3.25;;;10.90;99.90;;;;;;4810331;29;20186;-85
2024/04/05 00:59:36;;;;;;;16.15;3.95;;;10.90;99.90;;;;;;4810333;29;20213;-88
2024/04/05 01:02:02;;;;;;;21.55;3.15;;;10.80;99.90;;;;;;4810653;29;20182;-86
2024/04/05 01:04:27;;;;;;;17.85;3.72;;;10.80;99.90;;;;;;4792115;29;20217;-84
2024/04/05 01:06:54;;;;;;;16.73;3.90;;;10.80;99.90;;;;;;4808769;29;20230;-85
2024/04/05 01:09:20;;;;;;;20.30;3.85;;;10.80;99.90;;;;;;4809995;29;20182;-86
2024/04/05 01:11:56;;;;;;;17.92;3.85;;;10.70;99.90;;;;;;4826319;29;20272;-88
2024/04/05 01:14:22;;;;;;;17.60;3.33;;;10.70;99.90;;;;;;4824983;29;20606;-86
2024/04/05 01:16:49;;;;;;;16.48;3.30;;;10.70;99.90;;;;;;4826013;29;20249;-86
2024/04/05 01:19:19;;;;;;;14.45;3.30;;;10.70;99.90;;;;;;4809592;29;20206;-85
2024/04/05 01:21:49;;;;;;;15.38;3.28;;;10.70;99.90;;;;;;4826056;29;20185;-85
2024/04/05 01:24:14;;;;;;;16.50;3.58;;;10.60;99.90;;;;;;4825991;29;20182;-86
2024/04/05 01:26:40;;;;;;;11.80;3.05;;;10.70;99.90;;;;;;4826002;29;20246;-84
2024/04/05 01:29:06;;;;;;;13.85;3.20;;;10.70;99.90;;;;;;4809592;29;20178;-85
2024/04/05 01:31:32;;;;;;;15.43;3.63;;;10.70;99.90;;;;;;4836161;29;20205;-84
2024/04/05 01:33:58;;;;;;;13.07;3.28;;;10.60;99.90;;;;;;4827575;29;20189;-84
2024/04/05 01:36:23;;;;;;;9.27;2.83;;;10.60;99.90;;;;;;4844147;29;20181;-84
2024/04/05 01:38:49;;;;;;;13.02;2.60;;;10.60;99.90;;;;;;4827522;29;20177;-85
2024/04/05 01:41:16;;;;;;;13.82;2.80;;;10.60;99.90;;;;;;4843826;29;20214;-86
2024/04/05 01:43:41;;;;;;;11.32;2.78;;;10.60;99.90;;;;;;4843764;29;20177;-84
2024/04/05 01:46:07;;;;;;;11.85;2.88;;;10.60;99.90;;;;;;4843517;29;20189;-86
2024/04/05 01:48:34;;;;;;;13.52;3.45;;;10.50;99.90;;;;;;4827695;29;20630;-86
2024/04/05 01:51:00;;;;;;;12.32;2.88;;;10.50;99.90;;;;;;4843814;29;20183;-86
2024/04/05 01:53:25;;;;;;;10.82;2.70;;;10.50;99.90;;;;;;4827503;29;20571;-85
2024/04/05 01:55:51;;;;;;;16.05;3.38;;;10.50;99.90;;;;;;4843521;29;20177;-82
2024/04/05 01:58:17;;;;;;;11.18;2.80;;;10.50;99.90;;;;;;4843613;29;20190;-85
2024/04/05 02:00:42;;;;;;;13.05;2.20;;;10.50;99.90;;;;;;4849032;29;20552;-83
2024/04/05 02:03:08;;;;;;;17.80;3.20;;;10.40;99.90;;;;;;4862137;29;20220;-86
2024/04/05 02:05:34;;;;;;;11.40;2.72;;;10.40;99.90;;;;;;4861807;29;20275;-86
2024/04/05 02:08:01;;;;;;;8.70;2.17;;;10.40;99.90;;;;;;4860775;29;20188;-86
2024/04/05 02:10:26;;;;;;;11.43;2.75;;;10.30;99.90;;;;;;4845718;29;20676;-83
2024/04/05 02:12:52;;;;;;;9.45;2.40;;;10.30;99.90;;;;;;4860877;29;20197;-85
2024/04/05 02:15:18;;;;;;;12.18;2.05;;;10.30;99.90;;;;;;4845426;29;20200;-84
2024/04/05 02:17:43;;;;;;;11.35;2.80;;;10.30;99.90;;;;;;4861138;29;20251;-82
2024/04/05 02:20:09;;;;;;;9.68;1.75;;;10.30;99.90;;;;;;4860830;29;20300;-86
2024/04/05 02:22:35;;;;;;;12.95;2.75;;;10.30;99.90;;;;;;4865223;29;20181;-88
2024/04/05 02:25:01;;;;;;;8.57;2.28;;;10.20;99.90;;;;;;4849298;29;20195;-85
2024/04/05 02:27:27;;;;;;;15.95;2.17;;;10.20;99.90;;;;;;4865701;29;20667;-85
2024/04/05 02:29:53;;;;;;;13.73;2.83;;;10.20;99.90;;;;;;4849164;29;20284;-83
2024/04/05 02:32:19;;;;;;;12.73;2.22;;;10.20;99.90;;;;;;4865219;29;20184;-84
2024/04/05 02:34:44;;;;;;;11.35;2.97;;;10.30;99.90;;;;;;4865471;29;20181;-87
2024/04/05 02:37:10;;;;;;;14.60;2.88;;;10.20;99.90;;;;;;4864066;29;20188;-86
2024/04/05 02:39:36;;;;;;;8.98;2.10;;;10.20;99.90;;;;;;4865255;29;20205;-87
2024/04/05 02:42:02;;;;;;;14.02;2.80;;;10.20;99.90;;;;;;4865275;29;20173;-86
2024/04/05 02:44:27;;;;;;;9.90;2.08;;;10.10;99.90;;;;;;4864066;29;20192;-83
2024/04/05 02:46:53;;;;;;;12.38;2.42;;;10.10;99.90;;;;;;4864805;29;20261;-82
2024/04/05 02:49:19;;;;;;;10.35;2.05;;;10.10;99.90;;;;;;4848469;29;20181;-84
2024/04/05 02:51:45;;;;;;;12.27;2.78;;;10.10;99.90;;;;;;4865068;29;20180;-83
2024/04/05 02:56:51;;;;;;;11.13;2.20;;;10.10;99.90;;;;;;4894688;24;20481;-87
2024/04/05 02:59:17;;;;;;;17.45;3.28;;;10.00;99.90;;;;;;4865024;29;20208;-87
2024/04/05 03:01:42;;;;;;;13.95;2.28;;;10.00;99.90;;;;;;4849556;29;20192;-86
2024/04/05 03:04:08;;;;;;;11.82;2.47;;;10.00;99.90;;;;;;4849645;29;20200;-86
2024/04/05 03:06:39;;;;;;;13.57;2.28;;;9.90;99.90;;;;;;4849304;29;20180;-86
2024/04/05 03:09:05;;;;;;;14.43;2.20;;;9.90;99.90;;;;;;4849578;29;20670;-87
2024/04/05 03:11:30;;;;;;;13.93;2.30;;;9.90;99.90;;;;;;4865419;29;20180;-86
2024/04/05 03:13:56;;;;;;;12.95;2.72;;;9.90;99.90;;;;;;4849274;29;20181;-87
2024/04/05 03:16:22;;;;;;;12.98;2.45;;;9.90;99.90;;;;;;4847919;29;20180;-87
2024/04/05 03:18:48;;;;;;;10.07;2.08;;;9.80;99.90;;;;;;4865852;29;20695;-88
2024/04/05 03:21:13;;;;;;;11.73;2.35;;;9.80;99.90;;;;;;4865550;29;20257;-86
2024/04/05 03:23:39;;;;;;;11.05;2.50;;;9.80;99.90;;;;;;4849213;29;20184;-89
2024/04/05 03:26:05;;;;;;;12.38;2.67;;;9.90;99.90;;;;;;4848966;29;20639;-88
2024/04/05 03:28:30;;;;;;;17.02;3.05;;;9.90;99.90;;;;;;4849112;29;20528;-88
2024/04/05 03:30:56;;;;;;;10.90;2.20;;;9.90;99.90;;;;;;4848963;29;20189;-87
2024/04/05 03:33:22;;;;;;;12.52;2.70;;;10.00;99.90;;;;;;4863314;29;20187;-87
2024/04/05 03:35:47;;;;;;;9.52;2.33;;;10.00;99.90;;;;;;4848766;29;20632;-87
2024/04/05 03:38:14;;;;;;;9.40;2.33;;;10.10;99.90;;;;;;4865425;29;20272;-85
2024/04/05 03:40:40;;;;;;;11.00;1.92;;;10.10;99.90;;;;;;4848931;29;20559;-87
2024/04/05 03:43:09;;;;;;;11.52;2.47;;;10.20;99.90;;;;;;4848895;29;20177;-87
2024/04/05 03:45:35;;;;;;;11.43;2.38;;;10.20;99.90;;;;;;4848571;29;20644;-86
2024/04/05 03:48:03;;;;;;;12.40;2.25;;;10.20;99.90;;;;;;4849069;29;20184;-86
2024/04/05 03:50:29;;;;;;;18.95;2.60;;;10.20;99.90;;;;;;4848617;29;20191;-87
2024/04/05 03:52:55;;;;;;;12.50;2.25;;;10.20;99.90;;;;;;4848176;29;20180;-87
2024/04/05 03:55:21;;;;;;;15.35;2.90;;;10.10;99.90;;;;;;4863650;29;20676;-88
2024/04/05 03:57:52;;;;;;;11.15;2.42;;;10.10;99.90;;;;;;4848685;29;20217;-88
2024/04/05 04:00:19;;;;;;;10.45;2.47;;;10.10;99.90;;;;;;4848137;29;20239;-87
2024/04/05 04:02:44;;;;;;;13.30;3.13;;;10.10;99.90;;;;;;4848656;29;20191;-86
2024/04/05 04:05:10;;;;;;;9.75;2.30;;;10.10;99.90;;;;;;4848450;29;20279;-86
2024/04/05 04:07:48;;;;;;;11.27;2.33;;;10.20;99.90;;;;;;4864684;29;20188;-86
2024/04/05 04:10:14;;;;;;;14.77;2.78;;;10.20;99.90;;;;;;4848311;29;20181;-85
2024/04/05 04:12:40;;;;;;;14.50;2.35;;;10.30;99.90;;;;;;4864759;29;20184;-87
2024/04/05 04:15:11;;;;;;;10.27;2.17;;;10.30;99.90;;;;;;4847907;29;20629;-86
2024/04/05 04:17:38;;;;;;;14.60;2.75;;;10.40;99.90;;;;;;4848402;29;20180;-87
2024/04/05 04:20:06;;;;;;;12.02;2.85;;;10.40;99.90;;;;;;4863663;29;20220;-87
2024/04/05 04:22:34;;;;;;;12.85;2.47;;;10.40;99.90;;;;;;4864741;29;20618;-87
2024/04/05 04:25:00;;;;;;;17.10;3.15;;;10.40;99.90;;;;;;4848227;29;20187;-89
2024/04/05 04:27:33;;;;;;;9.88;2.42;;;10.40;99.90;;;;;;4848115;29;20181;-88
2024/04/05 04:29:58;;;;;;;13.98;2.55;;;10.40;99.90;;;;;;4847950;29;20176;-86
2024/04/05 04:32:24;;;;;;;10.23;2.00;;;10.40;99.90;;;;;;4847850;29;20189;-88
2024/04/05 04:34:50;;;;;;;13.10;2.38;;;10.40;99.90;;;;;;4847863;29;20180;-89
2024/04/05 04:37:19;;;;;;;10.25;2.13;;;10.40;99.90;;;;;;4847824;29;20999;-88
2024/04/05 04:39:46;;;;;;;15.57;2.90;;;10.40;99.90;;;;;;4847932;29;20226;-87
2024/04/05 04:42:12;;;;;;;17.05;2.97;;;10.40;99.90;;;;;;4847743;29;20184;-88
2024/04/05 04:44:38;;;;;;;14.40;2.40;;;10.40;99.90;;;;;;4864042;29;20272;-88
2024/04/05 04:47:06;;;;;;;7.60;1.95;;;10.40;99.90;;;;;;4864067;29;20212;-87
2024/04/05 04:49:33;;;;;;;13.00;2.42;;;10.40;99.90;;;;;;4848029;29;20237;-89
2024/04/05 04:51:59;;;;;;;12.70;2.70;;;10.40;99.90;;;;;;4847777;29;20632;-89
2024/04/05 04:54:24;;;;;;;11.98;2.20;;;10.40;99.90;;;;;;4847577;29;20211;-88
2024/04/05 04:56:51;;;;;;;13.55;2.88;;;10.40;99.90;;;;;;4847484;29;20568;-89
2024/04/05 04:59:17;;;;;;;12.98;2.65;;;10.40;99.90;;;;;;4847196;29;20280;-89
2024/04/05 05:01:42;;;;;;;12.93;2.47;;;10.40;99.90;;;;;;4847255;29;20252;-89
2024/04/05 05:04:08;;;;;;;17.00;3.38;;;10.40;99.90;;;;;;4847601;29;20237;-88
2024/04/05 05:06:34;;;;;;;10.73;2.60;;;10.40;99.90;;;;;;4847459;29;20181;-88
2024/04/05 05:09:03;;;;;;;13.40;2.55;;;10.40;99.90;;;;;;4847536;29;20239;-89
2024/04/05 05:11:28;;;;;;;11.75;2.90;;;10.40;99.90;;;;;;4847394;29;20185;-88
2024/04/05 05:13:54;;;;;;;13.82;2.40;;;10.40;99.90;;;;;;4847375;29;20177;-88
2024/04/05 05:16:20;;;;;;;14.38;2.85;;;10.40;99.90;;;;;;4846862;29;20288;-88
2024/04/05 05:18:51;;;;;;;13.45;2.67;;;10.40;99.90;;;;;;4847238;29;20181;-90
2024/04/05 05:21:17;;;;;;;11.95;2.45;;;10.40;99.90;;;;;;4846860;29;20702;-89
2024/04/05 05:23:43;;;;;;;11.75;2.33;;;10.40;99.90;;;;;;4847332;29;20212;-89
2024/04/05 05:26:08;;;;;;;12.68;2.70;;;10.50;99.90;;;;;;4846891;29;20185;-87
2024/04/05 05:28:36;;;;;;;12.80;2.83;;;10.50;99.90;;;;;;4846980;29;20177;-88
2024/04/05 05:31:02;;;;;;;14.75;2.78;;;10.50;99.90;;;;;;4846671;29;20188;-93
2024/04/05 05:33:28;;;;;;;15.32;2.70;;;10.50;99.90;;;;;;4847108;29;20543;-88
2024/04/05 05:35:53;;;;;;;11.50;2.10;;;10.60;99.90;;;;;;4863486;29;20173;-88
2024/04/05 05:38:29;;;;;;;10.13;2.33;;;10.60;99.90;;;;;;4862413;29;20753;-88
2024/04/05 05:40:55;;;;;;;12.30;2.00;;;10.60;99.90;;;;;;4863499;29;20270;-88
2024/04/05 05:43:21;;;;;;;13.43;2.60;;;10.70;99.90;;;;;;4863423;29;20184;-87
2024/04/05 05:45:47;;;;;;;11.95;2.25;;;10.70;99.90;;;;;;4862911;29;20636;-88
2024/04/05 05:48:20;;;;;;;9.93;2.47;;;10.70;99.90;;;;;;4863331;29;20187;-88
2024/04/05 05:50:46;;;;;;;12.48;2.63;;;10.80;99.90;;;;;;4846662;29;20348;-87
2024/04/05 05:53:12;;;;;;;14.95;2.55;;;10.80;99.90;;;;;;4862196;29;20676;-85
2024/04/05 05:55:38;;;;;;;12.27;2.10;;;10.80;99.90;;;;;;4862320;29;20228;-87
2024/04/05 05:58:03;;;;;;;11.48;1.90;;;10.90;99.90;;;;;;4846533;29;20264;-87
2024/04/05 06:00:30;;;;;;;13.48;2.40;;;10.90;99.90;;;;;;4846292;29;20208;-85
2024/04/05 06:02:56;;;;;;;13.38;2.65;;;10.90;99.90;;;;;;4846643;29;20184;-89
2024/04/05 06:05:23;;;;;;;16.45;3.25;;;10.90;99.90;;;;;;4846493;29;20217;-88
2024/04/05 06:08:12;;;;;;;15.60;3.25;;;10.90;99.90;;;;;;4845432;29;20241;-87
2024/04/05 06:10:38;;;;;;;16.00;2.42;;;10.90;99.90;;;;;;4846517;29;20541;-89
2024/04/05 06:13:04;;;;;;;13.63;2.67;;;11.00;99.90;;;;;;4862020;29;20180;-88
2024/04/05 06:15:29;;;;;;;15.05;2.40;;;11.00;99.90;;;;;;4846098;29;20279;-88
2024/04/05 06:17:56;;;;;;;12.52;2.65;;;11.00;99.90;;;;;;4845331;29;20651;-89
2024/04/05 06:20:22;;;;;;;11.45;2.08;;;11.00;99.90;;;;;;4861739;29;20208;-88
2024/04/05 06:22:48;;;;;;;9.57;2.13;;;11.10;99.90;;;;;;4862860;29;20188;-87
2024/04/05 06:25:14;;;;;;;12.07;2.28;;;11.10;99.90;;;;;;4846328;29;20591;-88
2024/04/05 06:27:39;;;;;;;11.13;2.15;;;11.10;99.90;;;;;;4846237;29;20533;-87
2024/04/05 06:30:08;;;;;;;9.55;2.15;;;11.20;99.90;;;;;;4846412;29;20180;-87
2024/04/05 06:32:33;;;;;;;10.15;1.95;;;11.20;99.90;;;;;;4846322;29;20196;-88
2024/04/05 06:35:10;;;;;;;10.82;2.13;;;11.30;99.90;;;;;;4837336;29;20237;-86
2024/04/05 06:37:36;;;;;;;11.02;1.95;;;11.30;99.90;;;;;;4826633;29;20188;-88
2024/04/05 06:40:04;;;;;;;12.27;2.10;;;11.40;99.90;;;;;;4829271;29;20293;-87
2024/04/05 06:42:30;;;;;;;8.45;2.40;;;11.40;99.90;;;;;;4837869;29;20197;-85
2024/04/05 06:45:03;;;;;;;9.40;2.00;;;11.50;99.90;;;;;;4845724;29;20245;-85
2024/04/05 06:47:29;;;;;;;9.20;1.80;;;11.60;99.90;;;;;;4834276;29;20516;-88
2024/04/05 06:50:01;;;;;;;10.27;1.90;;;11.70;99.90;;;;;;4830202;29;20287;-86
2024/04/05 06:52:27;;;;;;;10.77;1.98;;;11.80;99.90;;;;;;4831084;29;20185;-87
2024/04/05 06:54:53;;;;;;;9.45;2.13;;;11.90;99.90;;;;;;4831298;29;20754;-86
2024/04/05 06:57:19;;;;;;;9.93;1.95;;;11.90;99.90;;;;;;4829735;29;20225;-86
2024/04/05 06:59:49;;;;;;;10.13;2.10;;;12.00;99.90;;;;;;4853356;29;20208;-88
2024/04/05 07:02:16;;;;;;;11.40;2.25;;;12.10;99.90;;;;;;4828578;29;20200;-86
2024/04/05 07:04:43;;;;;;;8.43;2.22;;;12.10;99.90;;;;;;4829648;29;20660;-87
2024/04/05 07:07:08;;;;;;;11.20;2.10;;;12.20;99.90;;;;;;4823941;29;20261;-87
2024/04/05 07:09:36;;;;;;;8.32;2.20;;;12.10;99.90;;;;;;4844125;29;20628;-89
2024/04/05 07:12:04;;;;;;;5.95;1.65;;;12.10;99.90;;;;;;4829579;29;20193;-86
2024/04/05 07:14:30;;;;;;;9.18;2.30;;;12.20;99.90;;;;;;4849976;29;20642;-88
2024/04/05 07:16:56;;;;;;;11.52;2.15;;;12.20;99.90;;;;;;4845853;29;20196;-89
2024/04/05 07:19:36;;;;;;;10.23;2.40;;;12.30;99.90;;;;;;4833573;29;20555;-89
2024/04/05 07:22:03;;;;;;;8.82;2.10;;;12.40;99.90;;;;;;4844202;29;20241;-91
2024/04/05 07:24:29;;;;;;;10.90;2.40;;;12.50;99.90;;;;;;4837526;29;20241;-88
2024/04/05 07:26:54;;;;;;;9.02;2.13;;;12.50;99.90;;;;;;4850600;29;20264;-86
2024/04/05 07:29:20;;;;;;;9.57;2.53;;;12.60;99.90;;;;;;4830112;29;20182;-89
2024/04/05 07:31:49;;;;;;;8.85;2.17;;;12.70;99.90;;;;;;4835517;29;20210;-87
2024/04/05 07:34:15;;;;;;;8.13;1.90;;;12.70;99.90;;;;;;4828334;29;20197;-90
2024/04/05 07:36:41;;;;;;;8.10;1.98;;;12.70;99.90;;;;;;4849484;29;20188;-87
2024/04/05 07:39:09;;;;;;;10.77;2.50;;;12.70;99.90;;;;;;4837418;29;20526;-86
2024/04/05 07:41:34;;;;;;;7.57;2.08;;;12.80;99.90;;;;;;4845643;29;20272;-88
2024/04/05 07:44:01;;;;;;;7.72;2.05;;;12.80;99.90;;;;;;4829949;29;20277;-88
2024/04/05 07:46:27;;;;;;;8.48;2.67;;;12.80;99.90;;;;;;4830035;29;20688;-86
2024/04/05 07:48:54;;;;;;;7.60;1.92;;;12.90;99.90;;;;;;4838601;29;20667;-88
2024/04/05 07:51:20;;;;;;;8.13;1.88;;;12.90;99.90;;;;;;4864313;29;20191;-86
2024/04/05 07:53:47;;;;;;;8.27;2.05;;;13.00;99.90;;;;;;4848765;29;20188;-87
2024/04/05 07:56:13;;;;;;;9.43;2.20;;;13.00;99.90;;;;;;4836156;29;20236;-87
2024/04/05 07:58:39;;;;;;;6.45;1.70;;;13.10;99.90;;;;;;4845430;29;20582;-88
2024/04/05 08:01:23;;;;;;;13.20;1.80;;;13.10;99.90;;;;;;4846005;29;20315;-85
2024/04/05 08:03:49;;;;;;;8.20;2.05;;;13.10;99.90;;;;;;4846628;29;20633;-87
2024/04/05 08:06:15;;;;;;;9.18;2.03;;;13.10;99.90;;;;;;4846126;29;20808;-87
2024/04/05 08:08:41;;;;;;;10.45;1.95;;;13.10;99.90;;;;;;4829855;29;20949;-87
2024/04/05 08:11:07;;;;;;;6.75;1.83;;;13.20;99.90;;;;;;4829229;29;20214;-88
2024/04/05 08:13:33;;;;;;;8.65;2.10;;;13.30;99.90;;;;;;4830039;29;20518;-88
2024/04/05 08:15:59;;;;;;;9.63;2.22;;;13.50;99.90;;;;;;4829702;29;20193;-86
2024/04/05 08:18:24;;;;;;;8.70;2.22;;;13.60;99.90;;;;;;4845178;29;20556;-88
2024/04/05 08:21:05;;;;;;;8.07;2.00;;;13.70;99.90;;;;;;4824196;29;20252;-88
2024/04/05 08:23:31;;;;;;;11.75;2.58;;;13.70;99.90;;;;;;4811483;29;20178;-87
2024/04/05 08:25:57;;;;;;;10.85;1.90;;;13.70;99.90;;;;;;4835422;29;20200;-85
2024/04/05 08:28:23;;;;;;;8.82;2.22;;;13.70;99.90;;;;;;4864257;29;20283;-89
2024/04/05 08:30:51;;;;;;;11.20;2.67;;;13.70;99.90;;;;;;4847983;29;20633;-85
2024/04/05 08:33:18;;;;;;;7.35;2.00;;;13.60;99.90;;;;;;4832758;29;20189;-88
2024/04/05 08:35:54;;;;;;;7.38;1.88;;;13.50;99.90;;;;;;4829432;29;20276;-86
2024/04/05 08:38:20;;;;;;;10.23;2.45;;;13.40;99.90;;;;;;4845152;29;20177;-89
2024/04/05 08:40:50;;;;;;;8.20;2.38;;;13.40;99.90;;;;;;4863390;29;20723;-87
2024/04/05 08:43:16;;;;;;;10.13;2.20;;;13.40;99.90;;;;;;4863821;29;20772;-87
2024/04/05 08:45:43;;;;;;;7.40;1.95;;;13.40;99.90;;;;;;4845926;29;20332;-86
2024/04/05 08:48:09;;;;;;;8.70;2.42;;;13.40;99.90;;;;;;4847349;29;20196;-88
2024/04/05 08:50:37;;;;;;;11.20;2.17;;;13.40;99.90;;;;;;4847541;29;20517;-89
2024/04/05 08:53:03;;;;;;;11.15;2.60;;;13.50;99.90;;;;;;4845763;29;20182;-88
2024/04/05 08:55:29;;;;;;;8.73;1.95;;;13.60;99.90;;;;;;4845318;29;20233;-90
2024/04/05 08:57:55;;;;;;;7.70;1.90;;;13.70;99.90;;;;;;4840552;29;20184;-87
2024/04/05 09:00:24;;;;;;;10.70;2.60;;;13.70;99.90;;;;;;4847251;29;20244;-88
2024/04/05 09:02:54;;;;;;;9.23;2.10;;;13.90;99.90;;;;;;4862723;29;20188;-93
2024/04/05 09:05:20;;;;;;;8.70;2.13;;;14.00;99.90;;;;;;4832310;29;20193;-93
2024/04/05 09:07:50;;;;;;;7.82;1.98;;;14.10;99.90;;;;;;4829086;29;20177;-87
2024/04/05 09:10:22;;;;;;;12.05;2.65;;;14.20;99.90;;;;;;4829046;29;20181;-89
2024/04/05 09:12:53;;;;;;;6.53;1.83;;;14.40;99.90;;;;;;4828773;29;20181;-86
2024/04/05 09:15:19;;;;;;;8.05;2.20;;;14.50;99.90;;;;;;4832433;29;20189;-86
2024/04/05 09:17:46;;;;;;;7.78;2.20;;;14.50;99.90;;;;;;4863353;29;20192;-87
2024/04/05 09:20:17;;;;;;;9.77;2.63;;;14.60;99.90;;;;;;4846698;29;20220;-87
2024/04/05 09:22:44;;;;;;;8.07;2.00;;;14.60;99.90;;;;;;4863503;29;20177;-85
2024/04/05 09:25:10;;;;;;;10.18;2.08;;;14.50;99.90;;;;;;4845819;29;20583;-87
2024/04/05 09:27:35;;;;;;;8.88;2.35;;;14.50;99.90;;;;;;4846706;29;20216;-86
2024/04/05 09:30:08;;;;;;;9.30;2.65;;;14.60;99.90;;;;;;4861355;29;20184;-86
2024/04/05 09:32:36;;;;;;;11.32;3.33;;;14.70;99.90;;;;;;4846315;29;20181;-87
2024/04/05 09:35:03;;;;;;;12.90;3.42;;;14.80;99.90;;;;;;4846830;29;20192;-86
2024/04/05 09:37:29;;;;;;;10.02;3.55;;;15.00;99.90;;;;;;4846600;29;20215;-86
2024/04/05 09:39:55;;;;;;;9.27;2.72;;;15.10;99.90;;;;;;4863061;29;20247;-88
2024/04/05 09:42:23;;;;;;;12.32;3.25;;;15.30;99.90;;;;;;4863238;29;20173;-86
2024/04/05 09:44:58;;;;;;;12.77;2.65;;;15.60;99.90;;;;;;4846684;29;20184;-87
2024/04/05 09:47:27;;;;;;;14.15;2.38;;;15.90;99.90;;;;;;4862814;29;20168;-87
2024/04/05 09:49:54;;;;;;;9.65;2.38;;;16.10;99.90;;;;;;4846629;29;20177;-86
2024/04/05 09:52:24;;;;;;;9.00;2.30;;;16.20;99.90;;;;;;4845396;29;20530;-86
2024/04/05 09:54:59;;;;;;;9.88;2.22;;;16.20;99.90;;;;;;4846192;29;20613;-85
2024/04/05 09:57:26;;;;;;;8.88;2.10;;;16.10;99.90;;;;;;4846483;29;20184;-85
2024/04/05 09:59:53;;;;;;;8.27;2.28;;;16.20;99.90;;;;;;4861732;29;20217;-85
2024/04/05 10:02:31;;;;;;;7.28;2.28;;;16.10;99.90;;;;;;4862686;29;20640;-86
2024/04/05 10:04:57;;;;;;;6.97;2.42;;;16.00;99.90;;;;;;4846377;29;20328;-86
2024/04/05 10:07:26;;;;;;;7.18;2.20;;;15.90;99.90;;;;;;4862749;29;20636;-85
2024/04/05 10:09:52;;;;;;;6.47;1.83;;;15.90;99.90;;;;;;4846274;29;20177;-86
2024/04/05 10:12:30;;;;;;;8.20;2.60;;;15.90;99.90;;;;;;4862662;29;20189;-86
2024/04/05 10:14:57;;;;;;;6.65;1.85;;;15.90;99.90;;;;;;4862785;29;20192;-86
2024/04/05 10:17:28;;;;;;;9.13;2.20;;;16.00;99.90;;;;;;4845842;29;20216;-86
2024/04/05 10:20:06;;;;;;;7.35;2.15;;;16.10;99.90;;;;;;4845885;29;20216;-86
2024/04/05 10:22:35;;;;;;;6.03;1.60;;;16.20;99.90;;;;;;4845734;29;20203;-86
2024/04/05 10:25:02;;;;;;;5.03;1.50;;;16.40;99.90;;;;;;4846000;29;20271;-85
2024/04/05 10:27:28;;;;;;;8.23;1.67;;;16.50;99.90;;;;;;4862313;29;20241;-86
2024/04/05 10:30:02;;;;;;;6.57;2.10;;;16.50;99.90;;;;;;4845592;29;20181;-85
2024/04/05 10:32:30;;;;;;;7.85;1.65;;;16.60;99.90;;;;;;4845361;29;20184;-86
2024/04/05 10:35:14;;;;;;;7.90;1.83;;;16.60;99.90;;;;;;4861461;29;20173;-88
2024/04/05 10:37:39;;;;;;;4.20;1.50;;;16.50;99.90;;;;;;4846053;29;20615;-92
2024/04/05 10:40:10;;;;;;;8.48;1.70;;;16.40;99.90;;;;;;4862652;29;20295;-91
2024/04/05 10:42:40;;;;;;;6.72;1.63;;;16.40;99.90;;;;;;4863292;29;20185;-91
2024/04/05 10:45:07;;;;;;;6.75;1.77;;;16.40;99.90;;;;;;4849737;29;20185;-90
2024/04/05 10:47:35;;;;;;;7.32;1.65;;;16.30;99.90;;;;;;4849485;29;20582;-90
2024/04/05 10:50:03;;;;;;;5.53;1.70;;;16.30;99.90;;;;;;4849652;29;20181;-90
2024/04/05 10:52:30;;;;;;;6.10;1.58;;;16.20;99.90;;;;;;4864870;29;20188;-91
2024/04/05 10:54:56;;;;;;;6.93;1.70;;;16.10;99.90;;;;;;4864859;29;20224;-92
2024/04/05 10:57:22;;;;;;;6.35;1.38;;;16.00;99.90;;;;;;4866047;29;20275;-90
2024/04/05 10:59:48;;;;;;;6.05;1.65;;;16.00;99.90;;;;;;4865877;29;20303;-90
2024/04/05 11:02:14;;;;;;;5.85;1.38;;;15.90;99.90;;;;;;4849296;29;20177;-90
2024/04/05 11:04:40;;;;;;;5.13;1.48;;;15.90;99.90;;;;;;4866080;29;20189;-89
2024/04/05 11:07:05;;;;;;;5.78;1.25;;;15.80;99.90;;;;;;4849254;29;20180;-89
2024/04/05 11:09:38;;;;;;;4.88;1.55;;;15.90;99.90;;;;;;4832394;29;20181;-90
2024/04/05 11:12:04;;;;;;;7.88;1.67;;;15.80;99.90;;;;;;4847392;29;20200;-90
2024/04/05 11:14:31;;;;;;;5.93;1.45;;;15.90;99.90;;;;;;4830914;29;20205;-91
2024/04/05 11:17:00;;;;;;;3.53;1.30;;;15.90;99.90;;;;;;4847082;29;20188;-92
2024/04/05 11:19:26;;;;;;;8.18;1.85;;;16.00;99.90;;;;;;4830747;29;20186;-89
2024/04/05 11:22:15;;;;;;;4.18;1.48;;;16.10;99.90;;;;;;4833703;29;20189;-87
2024/04/05 11:24:50;;;;;;;5.75;1.50;;;16.20;99.90;;;;;;4865758;29;20613;-91
2024/04/05 11:27:21;;;;;;;3.90;1.35;;;16.30;99.90;;;;;;4854212;29;20181;-90
2024/04/05 11:29:48;;;;;;;4.28;1.38;;;16.40;99.90;;;;;;4830741;29;20181;-90
2024/04/05 11:32:31;;;;;;;6.82;1.38;;;16.50;99.90;;;;;;4845651;29;20213;-89
2024/04/05 11:35:01;;;;;;;6.90;1.45;;;16.70;99.90;;;;;;4846661;29;20226;-87
2024/04/05 11:37:28;;;;;;;5.78;1.65;;;16.70;99.90;;;;;;4830420;29;20216;-87
2024/04/05 11:39:58;;;;;;;5.38;1.63;;;16.80;99.90;;;;;;4830066;29;20228;-86
2024/04/05 11:42:25;;;;;;;3.60;1.20;;;16.90;99.90;;;;;;4846817;29;20184;-86
2024/04/05 11:44:51;;;;;;;7.55;1.45;;;16.90;99.90;;;;;;4846639;29;20186;-86
2024/04/05 11:47:22;;;;;;;5.00;1.30;;;16.90;99.90;;;;;;4845134;29;20193;-87
2024/04/05 11:49:49;;;;;;;4.78;1.05;;;17.00;99.90;;;;;;4846406;29;20176;-84
2024/04/05 11:52:15;;;;;;;2.03;0.98;;;17.10;99.90;;;;;;4845274;29;20196;-85
2024/04/05 11:54:42;;;;;;;5.25;1.33;;;17.20;99.90;;;;;;4829376;29;20520;-84
2024/04/05 11:57:13;;;;;;;4.97;0.98;;;17.20;99.90;;;;;;4830336;29;20208;-87
2024/04/05 11:59:38;;;;;;;4.97;1.40;;;17.20;99.90;;;;;;4846660;29;20200;-91
2024/04/05 12:02:04;;;;;;;5.57;1.35;;;17.20;99.90;;;;;;4846129;29;20522;-91
2024/04/05 12:04:30;;;;;;;4.45;1.27;;;17.30;99.90;;;;;;4829485;29;20196;-83
2024/04/05 12:06:56;;;;;;;4.60;1.17;;;17.30;99.90;;;;;;4842155;29;20593;-88
2024/04/05 12:09:21;;;;;;;4.80;1.45;;;17.30;99.90;;;;;;4829689;29;20648;-89
2024/04/05 12:11:49;;;;;;;3.15;1.13;;;17.30;99.90;;;;;;4862643;29;20177;-87
2024/04/05 12:14:16;;;;;;;3.75;1.10;;;17.30;99.90;;;;;;4864436;29;20344;-86
2024/04/05 12:16:41;;;;;;;5.75;1.00;;;17.30;99.90;;;;;;4862102;29;20195;-88
2024/04/05 12:19:07;;;;;;;6.43;1.13;;;17.30;99.90;;;;;;4847846;29;20180;-86
2024/04/05 12:21:33;;;;;;;2.83;0.95;;;17.30;99.90;;;;;;4846600;29;20223;-90
2024/04/05 12:24:01;;;;;;;7.57;1.55;;;17.40;99.90;;;;;;4847955;29;20184;-88
2024/04/05 12:26:26;;;;;;;7.50;1.02;;;17.40;99.90;;;;;;4863064;29;20505;-85
2024/04/05 12:28:53;;;;;;;3.60;0.80;;;17.40;99.90;;;;;;4862087;29;20181;-88
2024/04/05 12:31:20;;;;;;;4.63;1.15;;;17.30;99.90;;;;;;4845909;29;20583;-86
2024/04/05 12:33:46;;;;;;;2.95;1.02;;;17.20;99.90;;;;;;4829579;29;20273;-87
2024/04/05 12:36:13;;;;;;;1.38;0.70;;;17.20;99.90;;;;;;4857283;29;20534;-87
2024/04/05 12:38:40;;;;;;;1.80;1.02;;;17.20;99.90;;;;;;4864162;29;20632;-85
2024/04/05 12:41:06;;;;;;;3.38;0.90;;;17.10;99.90;;;;;;4862904;29;20224;-89
2024/04/05 12:43:34;;;;;;;4.30;1.05;;;17.10;99.90;;;;;;4847471;29;20176;-88